Time;durP1;ratioP1;P1;durP2;ratioP2;P2;SDS_P1;SDS_P2;PMS_P1;PMS_P2;Temp;Humidity;BMP_temperature;BMP_pressure;BME280_temperature;BME280_humidity;BME280_pressure;Samples;Min_cycle;Max_cycle;Signal;HPM_P1;HPM_P2
2022/06/20 00:00:58;;;;;;;;;38.25;34.00;;;;;-149.35;100.00;64108.03;5013735;28;45226;-49
2022/06/20 00:03:25;;;;;;;;;33.40;32.20;;;;;-149.35;100.00;64108.03;5013603;28;45627;-49
2022/06/20 00:05:51;;;;;;;;;43.60;37.60;;;;;-149.35;100.00;64108.03;5014366;28;45411;-49
2022/06/20 00:08:16;;;;;;;;;41.00;37.25;;;;;-149.35;100.00;64108.03;5016419;28;45430;-50
2022/06/20 00:10:43;;;;;;;;;39.00;33.25;;;;;-149.35;100.00;64108.03;5017025;28;45316;-50
2022/06/20 00:13:18;;;;;;;;;36.80;34.00;;;;;-149.35;100.00;64108.03;5016947;28;46394;-48
2022/06/20 00:15:45;;;;;;;;;43.00;37.80;;;;;-149.35;100.00;64108.03;5017931;28;45406;-49
2022/06/20 00:18:11;;;;;;;;;35.20;32.60;;;;;-149.35;100.00;64108.03;5000768;28;45218;-49
2022/06/20 00:20:36;;;;;;;;;32.50;28.50;;;;;-149.35;100.00;64108.03;5017218;28;45539;-47
2022/06/20 00:23:02;;;;;;;;;34.50;31.25;;;;;-149.35;100.00;64108.03;5017391;28;45768;-47
2022/06/20 00:25:30;;;;;;;;;35.00;33.00;;;;;-149.35;100.00;64108.03;5018046;28;45347;-46
2022/06/20 00:27:55;;;;;;;;;33.20;32.20;;;;;-149.35;100.00;64108.03;5018032;28;45382;-47
2022/06/20 00:30:21;;;;;;;;;31.50;28.00;;;;;-149.35;100.00;64108.03;5016867;28;45399;-48
2022/06/20 00:32:46;;;;;;;;;33.75;30.00;;;;;-149.35;100.00;64108.03;5018003;28;45659;-49
2022/06/20 00:35:12;;;;;;;;;32.00;31.00;;;;;-149.35;100.00;64108.03;5016419;28;45422;-52
2022/06/20 00:37:37;;;;;;;;;38.75;35.50;;;;;-149.35;100.00;64108.03;5018060;28;45330;-52
2022/06/20 00:40:05;;;;;;;;;29.75;29.75;;;;;-149.35;100.00;64108.03;5000238;28;45628;-47
2022/06/20 00:42:30;;;;;;;;;35.20;32.40;;;;;-149.35;100.00;64108.03;5016456;28;45921;-50
2022/06/20 00:44:59;;;;;;;;;28.25;27.00;;;;;-149.35;100.00;64108.03;5016231;28;45217;-48
2022/06/20 00:47:27;;;;;;;;;29.00;27.60;;;;;-149.35;100.00;64108.03;5000214;28;45383;-50
2022/06/20 00:50:04;;;;;;;;;29.40;29.00;;;;;-149.35;100.00;64108.03;5016418;28;45453;-49
2022/06/20 00:52:36;;;;;;;;;29.00;29.00;;;;;-149.35;100.00;64108.03;4995989;28;46362;-51
2022/06/20 00:55:15;;;;;;;;;31.40;28.80;;;;;-149.35;100.00;64108.03;5013834;28;45477;-50
2022/06/20 00:57:44;;;;;;;;;27.00;27.00;;;;;-149.35;100.00;64108.03;5011573;28;45410;-48
2022/06/20 01:00:17;;;;;;;;;33.20;30.60;;;;;-149.35;100.00;64108.03;5016309;28;45619;-49
2022/06/20 01:02:51;;;;;;;;;28.00;27.20;;;;;-149.35;100.00;64108.03;5015802;28;46485;-51
2022/06/20 01:05:21;;;;;;;;;32.80;32.40;;;;;-149.35;100.00;64108.03;4999872;28;45484;-47
2022/06/20 01:07:52;;;;;;;;;28.20;24.40;;;;;-149.35;100.00;64108.03;5000027;28;45344;-49
2022/06/20 01:10:18;;;;;;;;;26.20;24.80;;;;;-149.35;100.00;64108.03;5015916;28;45521;-49
2022/06/20 01:12:51;;;;;;;;;24.75;24.25;;;;;-149.35;100.00;64108.03;5015842;28;45435;-48
2022/06/20 01:15:22;;;;;;;;;25.80;24.60;;;;;-149.35;100.00;64108.03;5016194;28;45625;-48
2022/06/20 01:17:47;;;;;;;;;27.80;25.60;;;;;-149.35;100.00;64108.03;5015705;28;45374;-50
2022/06/20 01:20:19;;;;;;;;;29.75;27.75;;;;;-149.35;100.00;64108.03;5015286;28;45673;-52
2022/06/20 01:22:47;;;;;;;;;27.80;25.40;;;;;-149.35;100.00;64108.03;5016537;28;46552;-48
2022/06/20 01:25:39;;;;;;;;;24.40;23.20;;;;;-149.35;100.00;64108.03;5017394;28;45335;-48
2022/06/20 01:28:06;;;;;;;;;33.20;29.80;;;;;-149.35;100.00;64108.03;5016234;28;45498;-48
2022/06/20 01:30:34;;;;;;;;;27.60;25.80;;;;;-149.35;100.00;64108.03;5015969;28;45423;-51
2022/06/20 01:32:59;;;;;;;;;30.20;26.60;;;;;-149.35;100.00;64108.03;5016034;28;46206;-50
2022/06/20 01:38:11;;;;;;;;;26.60;26.00;;;;;-149.35;100.00;64108.03;5016238;28;45391;-47
2022/06/20 01:40:36;;;;;;;;;23.60;23.60;;;;;-149.35;100.00;64108.03;5017215;28;45300;-51
2022/06/20 01:43:02;;;;;;;;;22.75;22.25;;;;;-149.35;100.00;64108.03;5015735;28;46374;-49
2022/06/20 01:48:17;;;;;;;;;28.80;26.60;;;;;-149.35;100.00;64108.03;5001771;28;45372;-51
2022/06/20 01:50:42;;;;;;;;;28.40;25.40;;;;;-149.35;100.00;64108.03;5015586;28;45445;-47
2022/06/20 01:53:08;;;;;;;;;29.00;26.50;;;;;-149.35;100.00;64108.03;5015808;28;45417;-46
2022/06/20 01:55:34;;;;;;;;;26.50;25.00;;;;;-149.35;100.00;64108.03;4999010;28;45337;-49
2022/06/20 01:58:05;;;;;;;;;26.25;25.25;;;;;-149.35;100.00;64108.03;5015750;28;45388;-50
2022/06/20 02:00:31;;;;;;;;;26.80;26.80;;;;;-149.35;100.00;64108.03;4988122;28;45607;-51
2022/06/20 02:02:59;;;;;;;;;23.75;23.50;;;;;-149.35;100.00;64108.03;5013245;28;45801;-50
2022/06/20 02:05:27;;;;;;;;;27.20;26.80;;;;;-149.35;100.00;64108.03;4996042;28;45680;-49
2022/06/20 02:07:53;;;;;;;;;28.80;27.20;;;;;-149.35;100.00;64108.03;4997671;28;45340;-48
2022/06/20 02:10:22;;;;;;;;;29.20;25.60;;;;;-149.35;100.00;64108.03;5015518;28;45443;-47
2022/06/20 02:12:47;;;;;;;;;29.00;27.20;;;;;-149.35;100.00;64108.03;5012057;28;45394;-50
2022/06/20 02:15:31;;;;;;;;;26.75;26.00;;;;;-149.35;100.00;64108.03;4998697;28;45442;-49
2022/06/20 02:17:56;;;;;;;;;27.40;26.40;;;;;-149.35;100.00;64108.03;5000372;28;45261;-50
2022/06/20 02:20:25;;;;;;;;;25.25;23.25;;;;;-149.35;100.00;64108.03;4996538;28;45424;-47
2022/06/20 02:22:50;;;;;;;;;22.40;21.80;;;;;-149.35;100.00;64108.03;5014170;28;45984;-47
2022/06/20 02:25:19;;;;;;;;;29.50;26.00;;;;;-149.35;100.00;64108.03;4998723;28;45749;-50
2022/06/20 02:27:56;;;;;;;;;23.00;21.40;;;;;-149.35;100.00;64108.03;4998506;28;45414;-50
2022/06/20 02:30:22;;;;;;;;;25.40;22.40;;;;;-149.35;100.00;64108.03;4998344;28;45415;-51
2022/06/20 02:32:51;;;;;;;;;26.25;25.25;;;;;-149.35;100.00;64108.03;5014723;28;45715;-50
2022/06/20 02:35:19;;;;;;;;;24.60;23.60;;;;;-149.35;100.00;64108.03;4998517;28;45576;-48
2022/06/20 02:37:44;;;;;;;;;22.60;21.60;;;;;-149.35;100.00;64108.03;4998379;28;45833;-48
2022/06/20 02:40:12;;;;;;;;;24.25;21.00;;;;;-149.35;100.00;64108.03;5014687;28;45636;-49
2022/06/20 02:42:47;;;;;;;;;26.80;25.00;;;;;-149.35;100.00;64108.03;5014463;28;45958;-48
2022/06/20 02:45:12;;;;;;;;;19.00;16.80;;;;;-149.35;100.00;64108.03;5015510;28;45450;-53
2022/06/20 02:47:39;;;;;;;;;25.75;25.50;;;;;-149.35;100.00;64108.03;5015840;28;45375;-49
2022/06/20 02:50:05;;;;;;;;;27.00;27.00;;;;;-149.35;100.00;64108.03;5014289;28;45490;-49
2022/06/20 02:52:52;;;;;;;;;27.25;24.50;;;;;-149.35;100.00;64108.03;5014310;28;45567;-50
2022/06/20 02:55:18;;;;;;;;;24.80;23.20;;;;;-149.35;100.00;64108.03;5015661;28;45421;-47
2022/06/20 02:57:46;;;;;;;;;28.75;26.00;;;;;-149.35;100.00;64108.03;5014454;28;45373;-50
2022/06/20 03:00:15;;;;;;;;;24.80;24.80;;;;;-149.35;100.00;64108.03;4998127;28;45457;-49
2022/06/20 03:02:42;;;;;;;;;25.40;23.40;;;;;-149.35;100.00;64108.03;5014198;28;46766;-47
2022/06/20 03:05:07;;;;;;;;;29.80;28.20;;;;;-149.35;100.00;64108.03;4997747;28;45452;-47
2022/06/20 03:07:37;;;;;;;;;35.00;31.50;;;;;-149.35;100.00;64108.03;5014202;28;45375;-47
2022/06/20 03:10:19;;;;;;;;;33.40;30.40;;;;;-149.35;100.00;64108.03;5014513;28;45850;-49
2022/06/20 03:12:44;;;;;;;;;33.20;28.60;;;;;-149.35;100.00;64108.03;5014026;28;45785;-47
2022/06/20 03:15:10;;;;;;;;;31.25;30.75;;;;;-149.35;100.00;64108.03;5013849;28;45382;-48
2022/06/20 03:17:35;;;;;;;;;31.00;31.00;;;;;-149.35;100.00;64108.03;5015635;28;45327;-49
2022/06/20 03:20:03;;;;;;;;;32.25;29.50;;;;;-149.35;100.00;64108.03;5015894;28;45509;-48
2022/06/20 03:22:33;;;;;;;;;25.20;24.60;;;;;-149.35;100.00;64108.03;5004529;28;46192;-50
2022/06/20 03:24:58;;;;;;;;;29.40;27.40;;;;;-149.35;100.00;64108.03;4996169;28;45723;-48
2022/06/20 03:27:26;;;;;;;;;29.75;29.75;;;;;-149.35;100.00;64108.03;4996584;28;45984;-48
2022/06/20 03:29:54;;;;;;;;;29.80;28.60;;;;;-149.35;100.00;64108.03;5012251;28;45398;-49
2022/06/20 03:32:24;;;;;;;;;32.20;30.40;;;;;-149.35;100.00;64108.03;5013059;28;45986;-49
2022/06/20 03:34:50;;;;;;;;;25.40;25.40;;;;;-149.35;100.00;64108.03;5012120;28;45328;-48
2022/06/20 03:37:16;;;;;;;;;29.20;27.00;;;;;-149.35;100.00;64108.03;5011135;28;45914;-47
2022/06/20 03:39:41;;;;;;;;;30.00;28.25;;;;;-149.35;100.00;64108.03;5009701;28;45510;-47
2022/06/20 03:42:07;;;;;;;;;23.75;23.50;;;;;-149.35;100.00;64108.03;5013645;28;46597;-49
2022/06/20 03:44:35;;;;;;;;;25.75;24.75;;;;;-149.35;100.00;64108.03;5017206;28;45351;-47
2022/06/20 03:47:07;;;;;;;;;26.60;25.40;;;;;-149.35;100.00;64108.03;5001451;28;45289;-49
2022/06/20 03:49:34;;;;;;;;;26.20;24.80;;;;;-149.35;100.00;64108.03;5017346;28;45320;-48
2022/06/20 03:52:06;;;;;;;;;29.40;27.00;;;;;-149.35;100.00;64108.03;5018713;28;46646;-51
2022/06/20 03:54:42;;;;;;;;;30.20;28.40;;;;;-149.35;100.00;64108.03;5001508;28;45401;-46
2022/06/20 03:57:07;;;;;;;;;28.60;26.00;;;;;-149.35;100.00;64108.03;5019059;28;45360;-48
2022/06/20 03:59:42;;;;;;;;;20.75;19.75;;;;;-149.35;100.00;64108.03;5018553;28;45601;-47
2022/06/20 04:02:20;;;;;;;;;31.20;30.00;;;;;-149.35;100.00;64108.03;5017422;28;45689;-47
2022/06/20 04:04:50;;;;;;;;;21.60;20.60;;;;;-149.35;100.00;64108.03;5001008;28;45241;-49
2022/06/20 04:07:19;;;;;;;;;26.80;26.80;;;;;-149.35;100.00;64108.03;5018864;28;45810;-48
2022/06/20 04:12:58;;;;;;;;;22.60;22.00;;;;;-149.35;100.00;64108.03;5017424;28;45880;-48
2022/06/20 04:15:29;;;;;;;;;25.80;24.00;;;;;-149.35;100.00;64108.03;5001167;28;45486;-50
2022/06/20 04:20:50;;;;;;;;;27.00;24.60;;;;;-149.35;100.00;64108.03;5017368;28;45332;-49
2022/06/20 04:23:19;;;;;;;;;28.20;26.00;;;;;-149.35;100.00;64108.03;5016815;28;46961;-48
2022/06/20 04:25:52;;;;;;;;;32.40;27.20;;;;;-149.35;100.00;64108.03;5016383;28;45398;-46
2022/06/20 04:28:22;;;;;;;;;25.40;25.40;;;;;-149.35;100.00;64108.03;5017971;28;45377;-48
2022/06/20 04:31:01;;;;;;;;;31.20;28.00;;;;;-149.35;100.00;64108.03;5016912;28;45507;-51
2022/06/20 04:33:40;;;;;;;;;28.00;27.60;;;;;-149.35;100.00;64108.03;5016691;28;45704;-48
2022/06/20 04:36:17;;;;;;;;;30.60;28.00;;;;;-149.35;100.00;64108.03;5000218;28;45332;-52
2022/06/20 04:38:49;;;;;;;;;27.40;26.20;;;;;-149.35;100.00;64108.03;5000095;28;45435;-48
2022/06/20 04:41:32;;;;;;;;;27.20;26.00;;;;;-149.35;100.00;64108.03;5017170;28;45245;-52
2022/06/20 04:44:00;;;;;;;;;27.40;27.20;;;;;-149.35;100.00;64108.03;5016091;28;46960;-47
2022/06/20 04:46:32;;;;;;;;;32.40;29.60;;;;;-149.35;100.00;64108.03;5000324;28;45272;-49
2022/06/20 04:48:59;;;;;;;;;32.20;29.40;;;;;-149.35;100.00;64108.03;4999775;28;45416;-50
2022/06/20 04:51:33;;;;;;;;;26.20;24.20;;;;;-149.35;100.00;64108.03;5018120;28;45556;-46
2022/06/20 04:53:59;;;;;;;;;28.40;23.40;;;;;-149.35;100.00;64108.03;5015817;28;45530;-47
2022/06/20 04:56:27;;;;;;;;;29.50;26.25;;;;;-149.35;100.00;64108.03;5016343;28;45404;-47
2022/06/20 04:58:58;;;;;;;;;27.60;26.80;;;;;-149.35;100.00;64108.03;5015857;28;45353;-47
2022/06/20 05:01:23;;;;;;;;;29.20;28.60;;;;;-149.35;100.00;64108.03;5000444;28;45430;-47
2022/06/20 05:03:55;;;;;;;;;29.00;23.75;;;;;-149.35;100.00;64108.03;4999021;28;45690;-47
2022/06/20 05:06:25;;;;;;;;;31.00;25.00;;;;;-149.35;100.00;64108.03;5017393;28;45367;-47
2022/06/20 05:08:53;;;;;;;;;31.60;28.40;;;;;-149.35;100.00;64108.03;5015712;28;45406;-49
2022/06/20 05:11:37;;;;;;;;;28.80;27.20;;;;;-149.35;100.00;64108.03;5016259;28;45309;-52
2022/06/20 05:14:25;;;;;;;;;26.40;22.40;;;;;-149.35;100.00;64108.03;5015517;28;45616;-47
2022/06/20 05:16:53;;;;;;;;;30.80;27.80;;;;;-149.35;100.00;64108.03;5016146;28;45434;-50
2022/06/20 05:19:25;;;;;;;;;33.20;26.20;;;;;-149.35;100.00;64108.03;4999746;28;45359;-48
2022/06/20 05:21:53;;;;;;;;;29.80;28.60;;;;;-149.35;100.00;64108.03;5015936;28;45641;-49
2022/06/20 05:24:31;;;;;;;;;23.00;23.00;;;;;-149.35;100.00;64108.03;5015377;28;46732;-49
2022/06/20 05:26:57;;;;;;;;;29.20;24.80;;;;;-149.35;100.00;64108.03;5015694;28;45266;-50
2022/06/20 05:29:30;;;;;;;;;29.25;29.00;;;;;-149.35;100.00;64108.03;4999301;28;45561;-48
2022/06/20 05:31:57;;;;;;;;;28.80;27.00;;;;;-149.35;100.00;64108.03;4999821;28;45594;-48
2022/06/20 05:34:38;;;;;;;;;32.60;29.00;;;;;-149.35;100.00;64108.03;5016532;28;46588;-49
2022/06/20 05:37:12;;;;;;;;;30.60;25.40;;;;;-149.35;100.00;64108.03;5015547;28;45334;-48
2022/06/20 05:39:46;;;;;;;;;30.80;27.80;;;;;-149.35;100.00;64108.03;5015763;28;45461;-51
2022/06/20 05:42:13;;;;;;;;;29.00;23.40;;;;;-149.35;100.00;64108.03;5000140;28;45512;-50
2022/06/20 05:44:38;;;;;;;;;22.60;21.60;;;;;-149.35;100.00;64108.03;5015318;28;45514;-47
2022/06/20 05:47:05;;;;;;;;;22.75;22.00;;;;;-149.35;100.00;64108.03;5016646;28;45358;-50
2022/06/20 05:49:35;;;;;;;;;24.80;23.40;;;;;-149.35;100.00;64108.03;5015166;28;45393;-48
2022/06/20 05:52:01;;;;;;;;;21.20;20.40;;;;;-149.35;100.00;64108.03;4999278;28;45505;-50
2022/06/20 05:54:28;;;;;;;;;25.00;22.00;;;;;-149.35;100.00;64108.03;5016249;28;46015;-50
2022/06/20 05:56:59;;;;;;;;;20.60;18.80;;;;;-149.35;100.00;64108.03;5015482;28;45358;-47
2022/06/20 05:59:28;;;;;;;;;21.20;19.80;;;;;-149.35;100.00;64108.03;5015162;28;45578;-48
2022/06/20 06:01:56;;;;;;;;;21.40;20.20;;;;;-149.35;100.00;64108.03;5016877;28;45223;-48
2022/06/20 06:04:27;;;;;;;;;25.80;21.80;;;;;-149.35;100.00;64108.03;5014271;28;45473;-47
2022/06/20 06:06:57;;;;;;;;;24.60;21.60;;;;;-149.35;100.00;64108.03;5016418;28;45423;-49
2022/06/20 06:09:26;;;;;;;;;20.20;20.00;;;;;-149.35;100.00;64108.03;4998573;28;45399;-47
2022/06/20 06:11:56;;;;;;;;;23.00;20.80;;;;;-149.35;100.00;64108.03;5015314;28;45526;-52
2022/06/20 06:14:34;;;;;;;;;21.00;18.20;;;;;-149.35;100.00;64108.03;4998177;28;46152;-48
2022/06/20 06:17:16;;;;;;;;;17.00;15.00;;;;;-149.35;100.00;64108.03;5016154;28;45505;-48
2022/06/20 06:19:57;;;;;;;;;18.00;18.00;;;;;-149.35;100.00;64108.03;5014896;28;45548;-47
2022/06/20 06:22:30;;;;;;;;;20.60;19.40;;;;;-149.35;100.00;64108.03;5014865;28;45474;-46
2022/06/20 06:24:58;;;;;;;;;23.80;18.80;;;;;-149.35;100.00;64108.03;4999236;28;46523;-50
2022/06/20 06:27:26;;;;;;;;;18.00;17.00;;;;;-149.35;100.00;64108.03;4998430;28;45294;-50
2022/06/20 06:30:00;;;;;;;;;21.00;20.60;;;;;-149.35;100.00;64108.03;4998569;28;45722;-53
2022/06/20 06:32:32;;;;;;;;;13.80;11.80;;;;;-149.35;100.00;64108.03;4999593;28;45372;-47
2022/06/20 06:35:06;;;;;;;;;17.00;16.20;;;;;-149.35;100.00;64108.03;5015999;28;45996;-50
2022/06/20 06:37:38;;;;;;;;;17.00;15.40;;;;;-149.35;100.00;64108.03;5015208;28;45467;-48
2022/06/20 06:40:10;;;;;;;;;13.00;11.40;;;;;-149.35;100.00;64108.03;5015131;28;45436;-49
2022/06/20 06:42:36;;;;;;;;;14.20;14.20;;;;;-149.35;100.00;64108.03;5016130;28;45266;-50
2022/06/20 06:45:01;;;;;;;;;17.00;15.75;;;;;-149.35;100.00;64108.03;4997834;28;46417;-48
2022/06/20 06:47:39;;;;;;;;;17.25;15.50;;;;;-149.35;100.00;64108.03;5014756;28;45233;-48
2022/06/20 06:50:23;;;;;;;;;16.00;15.00;;;;;-149.35;100.00;64108.03;4998537;28;45490;-47
2022/06/20 06:52:56;;;;;;;;;16.00;15.00;;;;;-149.35;100.00;64108.03;4998097;28;45454;-48
2022/06/20 06:55:41;;;;;;;;;22.40;19.00;;;;;-149.35;100.00;64108.03;4998069;28;46035;-48
2022/06/20 06:58:15;;;;;;;;;20.60;16.80;;;;;-149.35;100.00;64108.03;4998099;28;45235;-48
2022/06/20 07:00:53;;;;;;;;;19.00;17.20;;;;;-149.35;100.00;64108.03;5015202;28;45280;-49
2022/06/20 07:03:23;;;;;;;;;15.40;14.00;;;;;-149.35;100.00;64108.03;5000103;28;45921;-47
2022/06/20 07:06:00;;;;;;;;;17.60;16.00;;;;;-149.35;100.00;64108.03;4980871;28;45733;-46
2022/06/20 07:08:28;;;;;;;;;14.40;12.60;;;;;-149.35;100.00;64108.03;4981715;28;45739;-47
2022/06/20 07:11:09;;;;;;;;;16.60;13.60;;;;;-149.35;100.00;64108.03;5015542;28;45886;-51
2022/06/20 07:13:45;;;;;;;;;15.20;15.20;;;;;-149.35;100.00;64108.03;5014334;28;45886;-49
2022/06/20 07:16:22;;;;;;;;;13.40;12.40;;;;;-149.35;100.00;64108.03;4998068;28;46711;-49
2022/06/20 07:18:50;;;;;;;;;19.00;17.60;;;;;-149.35;100.00;64108.03;5001334;28;45334;-48
2022/06/20 07:21:18;;;;;;;;;14.80;14.00;;;;;-149.35;100.00;64108.03;5017784;28;45444;-49
2022/06/20 07:23:47;;;;;;;;;17.60;14.60;;;;;-149.35;100.00;64108.03;5017988;28;45663;-50
2022/06/20 07:26:13;;;;;;;;;16.80;15.00;;;;;-149.35;100.00;64108.03;5017494;28;45730;-50
2022/06/20 07:28:55;;;;;;;;;18.00;15.20;;;;;-149.35;100.00;64108.03;5000936;28;45494;-51
2022/06/20 07:31:37;;;;;;;;;16.40;16.20;;;;;-149.35;100.00;64108.03;5017760;28;45275;-47
2022/06/20 07:34:30;;;;;;;;;18.60;15.00;;;;;-149.35;100.00;64108.03;4984845;28;45610;-48
2022/06/20 07:36:58;;;;;;;;;16.40;15.40;;;;;-149.35;100.00;64108.03;5007669;28;45643;-50
2022/06/20 07:39:32;;;;;;;;;14.80;14.80;;;;;-149.35;100.00;64108.03;5018575;28;45421;-48
2022/06/20 07:42:05;;;;;;;;;18.40;17.20;;;;;-149.35;100.00;64108.03;5018549;28;45443;-49
2022/06/20 07:44:33;;;;;;;;;25.20;17.60;;;;;-149.35;100.00;64108.03;4985374;28;45935;-50
2022/06/20 07:47:04;;;;;;;;;17.80;16.80;;;;;-149.35;100.00;64108.03;5017085;28;45764;-52
2022/06/20 07:49:35;;;;;;;;;19.80;17.80;;;;;-149.35;100.00;64108.03;5016950;28;45347;-50
2022/06/20 07:52:07;;;;;;;;;18.20;15.80;;;;;-149.35;100.00;64108.03;5016913;28;45261;-46
2022/06/20 07:54:34;;;;;;;;;17.80;15.80;;;;;-149.35;100.00;64108.03;5017794;28;45364;-47
2022/06/20 07:57:06;;;;;;;;;15.80;14.80;;;;;-149.35;100.00;64108.03;5016845;28;46598;-47
2022/06/20 07:59:51;;;;;;;;;14.60;13.80;;;;;-149.35;100.00;64108.03;5015929;28;45438;-50
2022/06/20 08:02:32;;;;;;;;;18.20;18.00;;;;;-149.35;100.00;64108.03;4999851;28;45823;-48
2022/06/20 08:04:58;;;;;;;;;19.40;13.00;;;;;-149.35;100.00;64108.03;4997850;28;45700;-48
2022/06/20 08:07:41;;;;;;;;;20.80;17.60;;;;;-149.35;100.00;64108.03;5017439;28;46080;-48
2022/06/20 08:10:12;;;;;;;;;16.60;15.40;;;;;-149.35;100.00;64108.03;4999879;28;45519;-50
2022/06/20 08:13:10;;;;;;;;;18.20;17.00;;;;;-149.35;100.00;64108.03;4984507;28;45412;-48
2022/06/20 08:15:46;;;;;;;;;21.00;17.40;;;;;-149.35;100.00;64108.03;5018507;28;45212;-48
2022/06/20 08:18:12;;;;;;;;;17.80;16.00;;;;;-149.35;100.00;64108.03;5000449;28;46030;-50
2022/06/20 08:20:40;;;;;;;;;17.20;17.20;;;;;-149.35;100.00;64108.03;5016823;28;45492;-48
2022/06/20 08:23:13;;;;;;;;;17.40;15.60;;;;;-149.35;100.00;64108.03;5000334;28;45562;-50
2022/06/20 08:25:43;;;;;;;;;15.00;14.00;;;;;-149.35;100.00;64108.03;5017224;28;45442;-47
2022/06/20 08:28:20;;;;;;;;;16.00;15.40;;;;;-149.35;100.00;64108.03;5016409;28;46297;-51
2022/06/20 08:30:54;;;;;;;;;20.40;16.20;;;;;-149.35;100.00;64108.03;5017163;28;45278;-53
2022/06/20 08:33:25;;;;;;;;;22.40;19.80;;;;;-149.35;100.00;64108.03;4997817;28;46363;-51
2022/06/20 08:36:32;;;;;;;;;23.60;19.20;;;;;-149.35;100.00;64108.03;5012990;28;45499;-53
2022/06/20 08:39:20;;;;;;;;;17.60;16.00;;;;;-149.35;100.00;64108.03;4951672;28;46750;-47
2022/06/20 08:42:10;;;;;;;;;20.20;18.60;;;;;-149.35;100.00;64108.03;5011618;28;45423;-52
2022/06/20 08:44:47;;;;;;;;;20.40;19.00;;;;;-149.35;100.00;64108.03;5012074;28;45544;-50
2022/06/20 08:47:34;;;;;;;;;18.80;18.00;;;;;-149.35;100.00;64108.03;5014415;28;45854;-52
2022/06/20 08:50:12;;;;;;;;;24.20;20.00;;;;;-149.35;100.00;64108.03;5013312;28;45775;-50
2022/06/20 08:53:04;;;;;;;;;18.80;17.20;;;;;-149.35;100.00;64108.03;5013654;28;45343;-50
2022/06/20 08:55:36;;;;;;;;;22.40;21.20;;;;;-149.35;100.00;64108.03;5011985;28;45580;-51
2022/06/20 08:58:12;;;;;;;;;23.40;20.20;;;;;-149.35;100.00;64108.03;5013583;28;45525;-52
2022/06/20 09:00:50;;;;;;;;;23.60;22.20;;;;;-149.35;100.00;64108.03;5013023;28;46982;-50
2022/06/20 09:03:31;;;;;;;;;24.80;21.00;;;;;-149.35;100.00;64108.03;5013338;28;45437;-52
2022/06/20 09:06:12;;;;;;;;;21.80;20.40;;;;;-149.35;100.00;64108.03;5002720;28;45583;-52
2022/06/20 09:08:58;;;;;;;;;26.25;22.75;;;;;-149.35;100.00;64108.03;4995654;28;46129;-50
2022/06/20 09:11:51;;;;;;;;;20.80;20.80;;;;;-149.35;100.00;64108.03;5013113;28;45936;-52
2022/06/20 09:14:27;;;;;;;;;21.40;20.20;;;;;-149.35;100.00;64108.03;5013123;28;45413;-53
2022/06/20 09:17:10;;;;;;;;;27.40;22.20;;;;;-149.35;100.00;64108.03;5011912;28;45885;-53
2022/06/20 09:19:48;;;;;;;;;21.40;19.20;;;;;-149.35;100.00;64108.03;5010909;28;45817;-56
2022/06/20 09:22:40;;;;;;;;;22.40;19.80;;;;;-149.35;100.00;64108.03;5013070;28;45531;-55
2022/06/20 09:25:05;;;;;;;;;18.40;17.80;;;;;-149.35;100.00;64108.03;5010967;28;45580;-54
2022/06/20 09:27:49;;;;;;;;;20.75;19.75;;;;;-149.35;100.00;64108.03;5013044;28;45877;-56
2022/06/20 09:30:20;;;;;;;;;11.00;11.00;;;;;-149.35;100.00;64108.03;5012363;28;45815;-54
2022/06/20 09:33:03;;;;;;;;;20.00;18.60;;;;;-149.35;100.00;64108.03;5000545;28;46679;-53
2022/06/20 09:35:38;;;;;;;;;21.80;19.00;;;;;-149.35;100.00;64108.03;5012738;28;45699;-50
2022/06/20 09:38:28;;;;;;;;;18.60;18.60;;;;;-149.35;100.00;64108.03;5013308;28;45351;-50
2022/06/20 09:40:53;;;;;;;;;16.80;16.20;;;;;-149.35;100.00;64108.03;5012298;28;45509;-57
2022/06/20 09:43:37;;;;;;;;;19.50;18.50;;;;;-149.35;100.00;64108.03;5012846;28;45762;-55
2022/06/20 09:46:44;;;;;;;;;19.00;16.80;;;;;-149.35;100.00;64108.03;4997398;28;45431;-55
2022/06/20 09:49:51;;;;;;;;;20.20;18.40;;;;;-149.35;100.00;64108.03;4971910;28;45987;-53
2022/06/20 09:52:40;;;;;;;;;18.60;18.60;;;;;-149.35;100.00;64108.03;5010557;28;45557;-51
2022/06/20 09:55:12;;;;;;;;;23.60;20.80;;;;;-149.35;100.00;64108.03;5010424;28;45831;-56
2022/06/20 09:57:44;;;;;;;;;22.80;20.60;;;;;-149.35;100.00;64108.03;5010412;28;45401;-55
2022/06/20 10:00:19;;;;;;;;;22.20;20.60;;;;;-149.35;100.00;64108.03;5012172;28;45458;-57
2022/06/20 10:03:07;;;;;;;;;22.80;21.60;;;;;-149.35;100.00;64108.03;5010298;28;45446;-53
2022/06/20 10:05:42;;;;;;;;;23.80;21.40;;;;;-149.35;100.00;64108.03;5009884;28;45494;-55
2022/06/20 10:08:45;;;;;;;;;21.20;20.60;;;;;-149.35;100.00;64108.03;5010434;28;45389;-54
2022/06/20 10:11:39;;;;;;;;;25.00;20.40;;;;;-149.35;100.00;64108.03;5011271;28;45701;-57
2022/06/20 10:14:20;;;;;;;;;20.40;20.40;;;;;-149.35;100.00;64108.03;5010500;28;45388;-55
2022/06/20 10:16:56;;;;;;;;;22.80;21.40;;;;;-149.35;100.00;64108.03;4995768;28;46612;-52
2022/06/20 10:19:33;;;;;;;;;19.80;19.20;;;;;-149.35;100.00;64108.03;5007769;28;45487;-51
2022/06/20 10:22:16;;;;;;;;;25.60;21.20;;;;;-149.35;100.00;64108.03;5010323;28;45815;-54
2022/06/20 10:24:47;;;;;;;;;21.80;20.40;;;;;-149.35;100.00;64108.03;5010973;28;45892;-51
2022/06/20 10:27:31;;;;;;;;;21.00;19.80;;;;;-149.35;100.00;64108.03;5011319;28;45855;-48
2022/06/20 10:30:05;;;;;;;;;23.80;22.40;;;;;-149.35;100.00;64108.03;5010181;28;45670;-53
2022/06/20 10:32:52;;;;;;;;;23.60;22.60;;;;;-149.35;100.00;64108.03;5009477;28;45429;-49
2022/06/20 10:35:28;;;;;;;;;21.80;21.80;;;;;-149.35;100.00;64108.03;5010317;28;45838;-50
2022/06/20 10:38:06;;;;;;;;;25.00;22.60;;;;;-149.35;100.00;64108.03;5011425;28;45724;-49
2022/06/20 10:40:53;;;;;;;;;28.40;24.20;;;;;-149.35;100.00;64108.03;5010387;28;45428;-51
2022/06/20 10:43:40;;;;;;;;;23.80;23.20;;;;;-149.35;100.00;64108.03;4991328;28;45457;-53
2022/06/20 10:46:30;;;;;;;;;24.80;23.00;;;;;-149.35;100.00;64108.03;5006027;28;45720;-53
2022/06/20 10:49:15;;;;;;;;;27.60;23.80;;;;;-149.35;100.00;64108.03;5009343;28;45589;-50
2022/06/20 10:52:08;;;;;;;;;23.40;22.20;;;;;-149.35;100.00;64108.03;5010740;28;45445;-48
2022/06/20 10:54:55;;;;;;;;;25.60;21.20;;;;;-149.35;100.00;64108.03;5010980;28;45681;-52
2022/06/20 10:57:42;;;;;;;;;24.00;22.80;;;;;-149.35;100.00;64108.03;5009574;28;45576;-51
2022/06/20 11:00:13;;;;;;;;;23.20;23.20;;;;;-149.35;100.00;64108.03;5010834;28;45551;-48
2022/06/20 11:03:00;;;;;;;;;23.80;22.00;;;;;-149.35;100.00;64108.03;4993754;28;45468;-49
2022/06/20 11:05:37;;;;;;;;;21.80;21.80;;;;;-149.35;100.00;64108.03;5010079;28;45492;-51
2022/06/20 11:08:11;;;;;;;;;26.20;22.20;;;;;-149.35;100.00;64108.03;5011570;28;45862;-49
2022/06/20 11:10:59;;;;;;;;;29.00;25.40;;;;;-149.35;100.00;64108.03;5008627;28;45486;-48
2022/06/20 11:13:33;;;;;;;;;31.60;26.40;;;;;-149.35;100.00;64108.03;5011100;28;45404;-47
2022/06/20 11:16:13;;;;;;;;;23.60;22.80;;;;;-149.35;100.00;64108.03;4993321;28;45558;-50
2022/06/20 11:18:47;;;;;;;;;28.80;27.60;;;;;-149.35;100.00;64108.03;4990547;28;45614;-49
2022/06/20 11:21:37;;;;;;;;;23.60;23.60;;;;;-149.35;100.00;64108.03;5004561;28;46769;-47
2022/06/20 11:24:19;;;;;;;;;26.40;24.40;;;;;-149.35;100.00;64108.03;5011232;28;45464;-51
2022/06/20 11:27:07;;;;;;;;;26.60;26.20;;;;;-149.35;100.00;64108.03;5010645;28;45507;-52
2022/06/20 11:29:54;;;;;;;;;33.20;27.40;;;;;-149.35;100.00;64108.03;5010721;28;45500;-50
2022/06/20 11:32:41;;;;;;;;;25.60;24.40;;;;;-149.35;100.00;64108.03;5009052;28;46849;-53
2022/06/20 11:35:25;;;;;;;;;30.00;26.60;;;;;-149.35;100.00;64108.03;5000531;28;45978;-50